sensor_id;sensor_type;location;lat;lon;timestamp;P1;durP1;ratioP1;P2;durP2;ratioP2
2940;SDS011;1480;51.456;6.670;2023-08-20T00:00:02;3.83;;;2.80;;
2940;SDS011;1480;51.456;6.670;2023-08-20T00:02:37;7.00;;;2.50;;
2940;SDS011;1480;51.456;6.670;2023-08-20T00:05:06;4.50;;;2.30;;
2940;SDS011;1480;51.456;6.670;2023-08-20T00:07:34;5.17;;;3.07;;
2940;SDS011;1480;51.456;6.670;2023-08-20T00:10:01;4.60;;;3.10;;
2940;SDS011;1480;51.456;6.670;2023-08-20T00:12:29;3.40;;;2.60;;
2940;SDS011;1480;51.456;6.670;2023-08-20T00:14:56;9.87;;;3.30;;
2940;SDS011;1480;51.456;6.670;2023-08-20T00:17:31;11.17;;;3.10;;
2940;SDS011;1480;51.456;6.670;2023-08-20T00:19:59;4.67;;;3.77;;
2940;SDS011;1480;51.456;6.670;2023-08-20T00:22:26;4.20;;;3.07;;
2940;SDS011;1480;51.456;6.670;2023-08-20T00:24:53;3.47;;;2.90;;
2940;SDS011;1480;51.456;6.670;2023-08-20T00:27:21;6.90;;;3.40;;
2940;SDS011;1480;51.456;6.670;2023-08-20T00:29:48;3.30;;;2.37;;
2940;SDS011;1480;51.456;6.670;2023-08-20T00:32:14;3.50;;;2.50;;
2940;SDS011;1480;51.456;6.670;2023-08-20T00:34:43;5.43;;;2.67;;
2940;SDS011;1480;51.456;6.670;2023-08-20T00:37:10;4.20;;;2.87;;
2940;SDS011;1480;51.456;6.670;2023-08-20T00:39:37;12.37;;;3.27;;
2940;SDS011;1480;51.456;6.670;2023-08-20T00:42:04;3.23;;;2.37;;
2940;SDS011;1480;51.456;6.670;2023-08-20T00:44:33;12.53;;;3.60;;
2940;SDS011;1480;51.456;6.670;2023-08-20T00:47:00;4.10;;;2.27;;
2940;SDS011;1480;51.456;6.670;2023-08-20T00:49:28;8.23;;;3.13;;
2940;SDS011;1480;51.456;6.670;2023-08-20T00:51:56;3.47;;;2.23;;
2940;SDS011;1480;51.456;6.670;2023-08-20T00:54:23;5.93;;;3.00;;
2940;SDS011;1480;51.456;6.670;2023-08-20T00:56:51;5.17;;;3.23;;
2940;SDS011;1480;51.456;6.670;2023-08-20T00:59:18;3.70;;;2.73;;
2940;SDS011;1480;51.456;6.670;2023-08-20T01:01:45;5.53;;;3.23;;
2940;SDS011;1480;51.456;6.670;2023-08-20T01:04:14;2.60;;;1.90;;
2940;SDS011;1480;51.456;6.670;2023-08-20T01:06:44;3.93;;;2.90;;
2940;SDS011;1480;51.456;6.670;2023-08-20T01:09:18;4.90;;;2.60;;
2940;SDS011;1480;51.456;6.670;2023-08-20T01:11:50;5.73;;;2.60;;
2940;SDS011;1480;51.456;6.670;2023-08-20T01:14:21;6.47;;;3.17;;
2940;SDS011;1480;51.456;6.670;2023-08-20T01:16:48;3.70;;;2.33;;
2940;SDS011;1480;51.456;6.670;2023-08-20T01:19:15;7.60;;;3.70;;
2940;SDS011;1480;51.456;6.670;2023-08-20T01:21:45;4.90;;;3.43;;
2940;SDS011;1480;51.456;6.670;2023-08-20T01:24:20;4.70;;;3.43;;
2940;SDS011;1480;51.456;6.670;2023-08-20T01:26:56;4.23;;;3.10;;
2940;SDS011;1480;51.456;6.670;2023-08-20T01:29:38;3.10;;;2.57;;
2940;SDS011;1480;51.456;6.670;2023-08-20T01:32:06;6.87;;;2.30;;
2940;SDS011;1480;51.456;6.670;2023-08-20T01:34:34;4.83;;;3.03;;
2940;SDS011;1480;51.456;6.670;2023-08-20T01:37:01;6.00;;;2.67;;
2940;SDS011;1480;51.456;6.670;2023-08-20T01:39:28;7.43;;;3.13;;
2940;SDS011;1480;51.456;6.670;2023-08-20T01:41:54;4.10;;;2.70;;
2940;SDS011;1480;51.456;6.670;2023-08-20T01:44:21;3.87;;;2.73;;
2940;SDS011;1480;51.456;6.670;2023-08-20T01:46:49;4.10;;;3.23;;
2940;SDS011;1480;51.456;6.670;2023-08-20T01:49:16;4.77;;;3.00;;
2940;SDS011;1480;51.456;6.670;2023-08-20T01:51:43;5.40;;;3.40;;
2940;SDS011;1480;51.456;6.670;2023-08-20T01:54:09;9.30;;;4.33;;
2940;SDS011;1480;51.456;6.670;2023-08-20T01:56:36;7.70;;;3.83;;
2940;SDS011;1480;51.456;6.670;2023-08-20T01:59:03;4.97;;;3.70;;
2940;SDS011;1480;51.456;6.670;2023-08-20T02:01:32;5.37;;;2.50;;
2940;SDS011;1480;51.456;6.670;2023-08-20T02:04:01;6.50;;;3.20;;
2940;SDS011;1480;51.456;6.670;2023-08-20T02:06:27;6.00;;;4.13;;
2940;SDS011;1480;51.456;6.670;2023-08-20T02:08:54;3.77;;;2.80;;
2940;SDS011;1480;51.456;6.670;2023-08-20T02:11:22;5.23;;;4.07;;
2940;SDS011;1480;51.456;6.670;2023-08-20T02:13:49;6.17;;;4.13;;
2940;SDS011;1480;51.456;6.670;2023-08-20T02:16:16;6.80;;;4.47;;
2940;SDS011;1480;51.456;6.670;2023-08-20T02:18:42;7.40;;;4.10;;
2940;SDS011;1480;51.456;6.670;2023-08-20T02:21:11;7.70;;;4.30;;
2940;SDS011;1480;51.456;6.670;2023-08-20T02:23:37;5.67;;;3.30;;
2940;SDS011;1480;51.456;6.670;2023-08-20T02:26:05;5.97;;;3.80;;
2940;SDS011;1480;51.456;6.670;2023-08-20T02:28:33;8.10;;;4.60;;
2940;SDS011;1480;51.456;6.670;2023-08-20T02:31:03;6.63;;;3.97;;
2940;SDS011;1480;51.456;6.670;2023-08-20T02:33:30;4.73;;;3.53;;
2940;SDS011;1480;51.456;6.670;2023-08-20T02:36:00;6.00;;;3.13;;
2940;SDS011;1480;51.456;6.670;2023-08-20T02:38:28;5.87;;;3.53;;
2940;SDS011;1480;51.456;6.670;2023-08-20T02:40:55;6.50;;;3.83;;
2940;SDS011;1480;51.456;6.670;2023-08-20T02:43:22;4.63;;;3.13;;
2940;SDS011;1480;51.456;6.670;2023-08-20T02:45:49;6.63;;;3.07;;
2940;SDS011;1480;51.456;6.670;2023-08-20T02:48:17;4.13;;;3.20;;
2940;SDS011;1480;51.456;6.670;2023-08-20T02:50:44;4.53;;;3.13;;
2940;SDS011;1480;51.456;6.670;2023-08-20T02:53:10;5.00;;;3.23;;
2940;SDS011;1480;51.456;6.670;2023-08-20T02:55:38;5.13;;;3.40;;
2940;SDS011;1480;51.456;6.670;2023-08-20T02:58:05;5.20;;;3.13;;
2940;SDS011;1480;51.456;6.670;2023-08-20T03:00:34;5.47;;;3.63;;
2940;SDS011;1480;51.456;6.670;2023-08-20T03:03:01;6.70;;;4.03;;
2940;SDS011;1480;51.456;6.670;2023-08-20T03:05:31;17.33;;;3.10;;
2940;SDS011;1480;51.456;6.670;2023-08-20T03:07:58;6.10;;;3.60;;
2940;SDS011;1480;51.456;6.670;2023-08-20T03:10:25;9.50;;;4.10;;
2940;SDS011;1480;51.456;6.670;2023-08-20T03:12:54;5.87;;;4.50;;
2940;SDS011;1480;51.456;6.670;2023-08-20T03:15:21;6.87;;;3.40;;
2940;SDS011;1480;51.456;6.670;2023-08-20T03:17:47;5.13;;;3.53;;
2940;SDS011;1480;51.456;6.670;2023-08-20T03:20:14;7.43;;;3.90;;
2940;SDS011;1480;51.456;6.670;2023-08-20T03:22:41;5.57;;;3.80;;
2940;SDS011;1480;51.456;6.670;2023-08-20T03:25:08;5.90;;;4.10;;
2940;SDS011;1480;51.456;6.670;2023-08-20T03:27:35;4.17;;;3.13;;
2940;SDS011;1480;51.456;6.670;2023-08-20T03:30:04;6.27;;;3.97;;
2940;SDS011;1480;51.456;6.670;2023-08-20T03:32:32;6.47;;;3.17;;
2940;SDS011;1480;51.456;6.670;2023-08-20T03:34:59;5.60;;;2.93;;
2940;SDS011;1480;51.456;6.670;2023-08-20T03:37:26;5.43;;;2.73;;
2940;SDS011;1480;51.456;6.670;2023-08-20T03:39:53;8.30;;;4.13;;
2940;SDS011;1480;51.456;6.670;2023-08-20T03:42:20;4.87;;;3.50;;
2940;SDS011;1480;51.456;6.670;2023-08-20T03:44:47;3.80;;;2.70;;
2940;SDS011;1480;51.456;6.670;2023-08-20T03:47:16;5.77;;;3.63;;
2940;SDS011;1480;51.456;6.670;2023-08-20T03:49:45;5.40;;;3.73;;
2940;SDS011;1480;51.456;6.670;2023-08-20T03:52:12;4.80;;;3.40;;
2940;SDS011;1480;51.456;6.670;2023-08-20T03:54:39;4.00;;;3.47;;
2940;SDS011;1480;51.456;6.670;2023-08-20T03:57:05;6.60;;;3.53;;
2940;SDS011;1480;51.456;6.670;2023-08-20T03:59:32;5.03;;;3.00;;
2940;SDS011;1480;51.456;6.670;2023-08-20T04:01:59;4.97;;;3.20;;
2940;SDS011;1480;51.456;6.670;2023-08-20T04:04:27;5.60;;;3.33;;
2940;SDS011;1480;51.456;6.670;2023-08-20T04:06:53;4.90;;;3.20;;
2940;SDS011;1480;51.456;6.670;2023-08-20T04:09:20;5.70;;;2.67;;
2940;SDS011;1480;51.456;6.670;2023-08-20T04:11:47;5.90;;;3.40;;
2940;SDS011;1480;51.456;6.670;2023-08-20T04:14:14;6.97;;;3.40;;
2940;SDS011;1480;51.456;6.670;2023-08-20T04:16:41;5.53;;;3.50;;
2940;SDS011;1480;51.456;6.670;2023-08-20T04:19:08;4.77;;;3.37;;
2940;SDS011;1480;51.456;6.670;2023-08-20T04:21:36;4.60;;;2.90;;
2940;SDS011;1480;51.456;6.670;2023-08-20T04:24:04;4.83;;;3.27;;
2940;SDS011;1480;51.456;6.670;2023-08-20T04:26:32;4.23;;;3.07;;
2940;SDS011;1480;51.456;6.670;2023-08-20T04:28:59;7.10;;;3.90;;
2940;SDS011;1480;51.456;6.670;2023-08-20T04:31:26;5.60;;;3.60;;
2940;SDS011;1480;51.456;6.670;2023-08-20T04:34:01;5.10;;;3.60;;
2940;SDS011;1480;51.456;6.670;2023-08-20T04:36:39;6.20;;;4.00;;
2940;SDS011;1480;51.456;6.670;2023-08-20T04:39:06;6.70;;;4.90;;
2940;SDS011;1480;51.456;6.670;2023-08-20T04:41:36;4.07;;;2.70;;
2940;SDS011;1480;51.456;6.670;2023-08-20T04:44:05;5.93;;;3.70;;
2940;SDS011;1480;51.456;6.670;2023-08-20T04:46:32;4.80;;;3.33;;
2940;SDS011;1480;51.456;6.670;2023-08-20T04:48:58;4.30;;;3.43;;
2940;SDS011;1480;51.456;6.670;2023-08-20T04:51:25;4.03;;;3.17;;
2940;SDS011;1480;51.456;6.670;2023-08-20T04:53:53;6.07;;;4.13;;
2940;SDS011;1480;51.456;6.670;2023-08-20T04:56:20;5.20;;;3.20;;
2940;SDS011;1480;51.456;6.670;2023-08-20T04:58:47;4.63;;;2.93;;
2940;SDS011;1480;51.456;6.670;2023-08-20T05:01:30;4.13;;;3.07;;
2940;SDS011;1480;51.456;6.670;2023-08-20T05:03:56;8.93;;;4.10;;
2940;SDS011;1480;51.456;6.670;2023-08-20T05:06:24;5.10;;;3.90;;
2940;SDS011;1480;51.456;6.670;2023-08-20T05:08:50;12.90;;;3.90;;
2940;SDS011;1480;51.456;6.670;2023-08-20T05:11:20;5.03;;;3.13;;
2940;SDS011;1480;51.456;6.670;2023-08-20T05:13:49;6.87;;;3.80;;
2940;SDS011;1480;51.456;6.670;2023-08-20T05:16:16;6.73;;;4.07;;
2940;SDS011;1480;51.456;6.670;2023-08-20T05:18:44;13.87;;;4.07;;
2940;SDS011;1480;51.456;6.670;2023-08-20T05:21:10;6.97;;;4.80;;
2940;SDS011;1480;51.456;6.670;2023-08-20T05:23:38;6.67;;;3.77;;
2940;SDS011;1480;51.456;6.670;2023-08-20T05:26:05;7.70;;;3.53;;
2940;SDS011;1480;51.456;6.670;2023-08-20T05:28:34;4.80;;;3.60;;
2940;SDS011;1480;51.456;6.670;2023-08-20T05:31:01;7.13;;;3.50;;
2940;SDS011;1480;51.456;6.670;2023-08-20T05:33:28;6.70;;;4.13;;
2940;SDS011;1480;51.456;6.670;2023-08-20T05:35:54;7.00;;;3.90;;
2940;SDS011;1480;51.456;6.670;2023-08-20T05:38:21;6.60;;;4.20;;
2940;SDS011;1480;51.456;6.670;2023-08-20T05:40:49;4.80;;;3.17;;
2940;SDS011;1480;51.456;6.670;2023-08-20T05:43:16;4.07;;;3.10;;
2940;SDS011;1480;51.456;6.670;2023-08-20T05:45:45;5.97;;;3.77;;
2940;SDS011;1480;51.456;6.670;2023-08-20T05:48:17;5.73;;;3.50;;
2940;SDS011;1480;51.456;6.670;2023-08-20T05:50:44;5.43;;;3.40;;
2940;SDS011;1480;51.456;6.670;2023-08-20T05:53:11;7.37;;;3.87;;
2940;SDS011;1480;51.456;6.670;2023-08-20T05:55:38;6.33;;;3.43;;
2940;SDS011;1480;51.456;6.670;2023-08-20T05:58:05;8.53;;;4.10;;
2940;SDS011;1480;51.456;6.670;2023-08-20T06:00:33;6.20;;;4.53;;
2940;SDS011;1480;51.456;6.670;2023-08-20T06:03:01;6.17;;;4.40;;
2940;SDS011;1480;51.456;6.670;2023-08-20T06:05:28;5.40;;;3.47;;
2940;SDS011;1480;51.456;6.670;2023-08-20T06:07:55;5.73;;;3.40;;
2940;SDS011;1480;51.456;6.670;2023-08-20T06:10:21;7.30;;;4.83;;
2940;SDS011;1480;51.456;6.670;2023-08-20T06:12:48;6.90;;;4.83;;
2940;SDS011;1480;51.456;6.670;2023-08-20T06:15:15;6.53;;;4.10;;
2940;SDS011;1480;51.456;6.670;2023-08-20T06:17:42;5.10;;;4.20;;
2940;SDS011;1480;51.456;6.670;2023-08-20T06:20:10;4.47;;;3.30;;
2940;SDS011;1480;51.456;6.670;2023-08-20T06:22:37;7.50;;;4.33;;
2940;SDS011;1480;51.456;6.670;2023-08-20T06:25:04;5.90;;;4.60;;
2940;SDS011;1480;51.456;6.670;2023-08-20T06:27:32;9.60;;;5.70;;
2940;SDS011;1480;51.456;6.670;2023-08-20T06:29:58;8.70;;;5.97;;
2940;SDS011;1480;51.456;6.670;2023-08-20T06:32:25;7.20;;;4.63;;
2940;SDS011;1480;51.456;6.670;2023-08-20T06:34:52;7.60;;;5.10;;
2940;SDS011;1480;51.456;6.670;2023-08-20T06:37:20;6.73;;;4.50;;
2940;SDS011;1480;51.456;6.670;2023-08-20T06:39:47;7.77;;;5.43;;
2940;SDS011;1480;51.456;6.670;2023-08-20T06:42:14;11.87;;;6.83;;
2940;SDS011;1480;51.456;6.670;2023-08-20T06:44:41;14.87;;;7.77;;
2940;SDS011;1480;51.456;6.670;2023-08-20T06:47:08;9.20;;;6.20;;
2940;SDS011;1480;51.456;6.670;2023-08-20T06:49:34;12.20;;;7.03;;
2940;SDS011;1480;51.456;6.670;2023-08-20T06:52:01;8.23;;;6.20;;
2940;SDS011;1480;51.456;6.670;2023-08-20T06:54:29;14.93;;;7.07;;
2940;SDS011;1480;51.456;6.670;2023-08-20T06:56:56;6.67;;;4.83;;
2940;SDS011;1480;51.456;6.670;2023-08-20T06:59:23;8.93;;;6.60;;
2940;SDS011;1480;51.456;6.670;2023-08-20T07:01:50;9.30;;;6.40;;
2940;SDS011;1480;51.456;6.670;2023-08-20T07:04:16;7.90;;;5.37;;
2940;SDS011;1480;51.456;6.670;2023-08-20T07:06:43;9.50;;;6.20;;
2940;SDS011;1480;51.456;6.670;2023-08-20T07:09:10;7.33;;;5.17;;
2940;SDS011;1480;51.456;6.670;2023-08-20T07:11:38;13.90;;;7.03;;
2940;SDS011;1480;51.456;6.670;2023-08-20T07:14:05;11.50;;;6.90;;
2940;SDS011;1480;51.456;6.670;2023-08-20T07:16:31;11.97;;;6.37;;
2940;SDS011;1480;51.456;6.670;2023-08-20T07:18:58;13.40;;;7.80;;
2940;SDS011;1480;51.456;6.670;2023-08-20T07:21:25;12.73;;;7.50;;
2940;SDS011;1480;51.456;6.670;2023-08-20T07:23:55;10.63;;;6.83;;
2940;SDS011;1480;51.456;6.670;2023-08-20T07:26:22;10.30;;;6.23;;
2940;SDS011;1480;51.456;6.670;2023-08-20T07:28:50;10.20;;;6.90;;
2940;SDS011;1480;51.456;6.670;2023-08-20T07:31:23;13.83;;;5.70;;
2940;SDS011;1480;51.456;6.670;2023-08-20T07:33:50;11.90;;;7.10;;
2940;SDS011;1480;51.456;6.670;2023-08-20T07:36:20;13.50;;;9.77;;
2940;SDS011;1480;51.456;6.670;2023-08-20T07:38:47;11.03;;;6.33;;
2940;SDS011;1480;51.456;6.670;2023-08-20T07:41:14;12.47;;;7.33;;
2940;SDS011;1480;51.456;6.670;2023-08-20T07:43:41;9.23;;;6.57;;
2940;SDS011;1480;51.456;6.670;2023-08-20T07:46:09;11.90;;;6.90;;
2940;SDS011;1480;51.456;6.670;2023-08-20T07:48:36;10.63;;;5.80;;
2940;SDS011;1480;51.456;6.670;2023-08-20T07:51:03;10.93;;;5.60;;
2940;SDS011;1480;51.456;6.670;2023-08-20T07:53:30;11.40;;;6.93;;
2940;SDS011;1480;51.456;6.670;2023-08-20T07:55:57;11.97;;;6.70;;
2940;SDS011;1480;51.456;6.670;2023-08-20T07:58:25;13.40;;;7.67;;
2940;SDS011;1480;51.456;6.670;2023-08-20T08:00:53;14.87;;;8.27;;
2940;SDS011;1480;51.456;6.670;2023-08-20T08:03:21;15.07;;;8.00;;
2940;SDS011;1480;51.456;6.670;2023-08-20T08:05:48;16.63;;;7.60;;
2940;SDS011;1480;51.456;6.670;2023-08-20T08:08:15;11.27;;;6.83;;
2940;SDS011;1480;51.456;6.670;2023-08-20T08:10:42;13.13;;;6.87;;
2940;SDS011;1480;51.456;6.670;2023-08-20T08:13:11;9.07;;;6.37;;
2940;SDS011;1480;51.456;6.670;2023-08-20T08:15:38;9.37;;;5.23;;
2940;SDS011;1480;51.456;6.670;2023-08-20T08:18:06;11.03;;;6.43;;
2940;SDS011;1480;51.456;6.670;2023-08-20T08:20:34;12.80;;;6.80;;
2940;SDS011;1480;51.456;6.670;2023-08-20T08:23:01;13.67;;;5.87;;
2940;SDS011;1480;51.456;6.670;2023-08-20T08:25:28;11.13;;;6.63;;
2940;SDS011;1480;51.456;6.670;2023-08-20T08:27:55;14.80;;;8.27;;
2940;SDS011;1480;51.456;6.670;2023-08-20T08:30:22;10.77;;;7.70;;
2940;SDS011;1480;51.456;6.670;2023-08-20T08:32:49;9.77;;;6.73;;
2940;SDS011;1480;51.456;6.670;2023-08-20T08:35:18;8.43;;;6.27;;
2940;SDS011;1480;51.456;6.670;2023-08-20T08:37:46;9.47;;;6.30;;
2940;SDS011;1480;51.456;6.670;2023-08-20T08:40:13;14.20;;;6.80;;
2940;SDS011;1480;51.456;6.670;2023-08-20T08:42:40;8.70;;;6.17;;
2940;SDS011;1480;51.456;6.670;2023-08-20T08:45:08;8.47;;;5.60;;
2940;SDS011;1480;51.456;6.670;2023-08-20T08:47:36;9.27;;;5.77;;
2940;SDS011;1480;51.456;6.670;2023-08-20T08:50:03;7.20;;;4.63;;
2940;SDS011;1480;51.456;6.670;2023-08-20T08:52:31;10.37;;;7.17;;
2940;SDS011;1480;51.456;6.670;2023-08-20T08:54:59;9.20;;;5.20;;
2940;SDS011;1480;51.456;6.670;2023-08-20T08:57:26;8.20;;;5.20;;
2940;SDS011;1480;51.456;6.670;2023-08-20T08:59:53;12.70;;;6.30;;
2940;SDS011;1480;51.456;6.670;2023-08-20T09:02:19;7.33;;;5.77;;
2940;SDS011;1480;51.456;6.670;2023-08-20T09:04:47;10.57;;;7.07;;
2940;SDS011;1480;51.456;6.670;2023-08-20T09:07:14;11.43;;;6.13;;
2940;SDS011;1480;51.456;6.670;2023-08-20T09:09:41;8.57;;;5.67;;
2940;SDS011;1480;51.456;6.670;2023-08-20T09:12:13;9.90;;;5.60;;
2940;SDS011;1480;51.456;6.670;2023-08-20T09:14:43;12.23;;;7.37;;
2940;SDS011;1480;51.456;6.670;2023-08-20T09:17:12;15.40;;;7.17;;
2940;SDS011;1480;51.456;6.670;2023-08-20T09:19:39;19.97;;;6.50;;
2940;SDS011;1480;51.456;6.670;2023-08-20T09:22:06;8.13;;;6.47;;
2940;SDS011;1480;51.456;6.670;2023-08-20T09:24:33;8.00;;;5.20;;
2940;SDS011;1480;51.456;6.670;2023-08-20T09:27:04;8.37;;;5.33;;
2940;SDS011;1480;51.456;6.670;2023-08-20T09:29:33;11.80;;;6.70;;
2940;SDS011;1480;51.456;6.670;2023-08-20T09:32:00;13.77;;;7.70;;
2940;SDS011;1480;51.456;6.670;2023-08-20T09:34:35;11.67;;;6.77;;
2940;SDS011;1480;51.456;6.670;2023-08-20T09:37:03;9.37;;;6.10;;
2940;SDS011;1480;51.456;6.670;2023-08-20T09:39:29;8.00;;;5.87;;
2940;SDS011;1480;51.456;6.670;2023-08-20T09:41:56;12.70;;;6.70;;
2940;SDS011;1480;51.456;6.670;2023-08-20T09:44:24;8.30;;;4.73;;
2940;SDS011;1480;51.456;6.670;2023-08-20T09:46:53;20.40;;;5.60;;
2940;SDS011;1480;51.456;6.670;2023-08-20T09:49:21;7.10;;;4.20;;
2940;SDS011;1480;51.456;6.670;2023-08-20T09:51:51;7.23;;;4.70;;
2940;SDS011;1480;51.456;6.670;2023-08-20T09:54:19;10.47;;;4.93;;
2940;SDS011;1480;51.456;6.670;2023-08-20T09:56:50;8.50;;;4.37;;
2940;SDS011;1480;51.456;6.670;2023-08-20T09:59:18;6.13;;;4.63;;
2940;SDS011;1480;51.456;6.670;2023-08-20T10:01:45;6.00;;;3.97;;
2940;SDS011;1480;51.456;6.670;2023-08-20T10:04:14;6.43;;;3.77;;
2940;SDS011;1480;51.456;6.670;2023-08-20T10:06:41;4.47;;;3.43;;
2940;SDS011;1480;51.456;6.670;2023-08-20T10:09:09;6.07;;;3.90;;
2940;SDS011;1480;51.456;6.670;2023-08-20T10:11:36;5.10;;;3.70;;
2940;SDS011;1480;51.456;6.670;2023-08-20T10:14:03;7.37;;;4.10;;
2940;SDS011;1480;51.456;6.670;2023-08-20T10:16:34;5.13;;;3.97;;
2940;SDS011;1480;51.456;6.670;2023-08-20T10:19:04;8.53;;;3.30;;
2940;SDS011;1480;51.456;6.670;2023-08-20T10:21:33;6.17;;;3.63;;
2940;SDS011;1480;51.456;6.670;2023-08-20T10:24:16;4.87;;;3.53;;
2940;SDS011;1480;51.456;6.670;2023-08-20T10:26:45;4.13;;;2.90;;
2940;SDS011;1480;51.456;6.670;2023-08-20T10:32:05;4.30;;;3.30;;
2940;SDS011;1480;51.456;6.670;2023-08-20T10:34:32;7.10;;;4.57;;
2940;SDS011;1480;51.456;6.670;2023-08-20T10:37:02;4.80;;;3.90;;
2940;SDS011;1480;51.456;6.670;2023-08-20T10:39:29;4.80;;;3.50;;
2940;SDS011;1480;51.456;6.670;2023-08-20T10:42:09;5.57;;;3.50;;
2940;SDS011;1480;51.456;6.670;2023-08-20T10:47:23;6.80;;;4.00;;
2940;SDS011;1480;51.456;6.670;2023-08-20T10:49:50;9.13;;;4.77;;
2940;SDS011;1480;51.456;6.670;2023-08-20T10:52:18;6.03;;;4.30;;
2940;SDS011;1480;51.456;6.670;2023-08-20T10:54:45;8.50;;;3.60;;
2940;SDS011;1480;51.456;6.670;2023-08-20T10:57:16;5.23;;;4.10;;
2940;SDS011;1480;51.456;6.670;2023-08-20T10:59:42;3.87;;;3.13;;
2940;SDS011;1480;51.456;6.670;2023-08-20T11:02:11;6.80;;;4.37;;
2940;SDS011;1480;51.456;6.670;2023-08-20T11:04:41;5.00;;;3.57;;
2940;SDS011;1480;51.456;6.670;2023-08-20T11:07:08;5.37;;;3.60;;
2940;SDS011;1480;51.456;6.670;2023-08-20T11:09:36;3.80;;;2.80;;
2940;SDS011;1480;51.456;6.670;2023-08-20T11:12:05;5.13;;;2.80;;
2940;SDS011;1480;51.456;6.670;2023-08-20T11:14:32;6.57;;;3.60;;
2940;SDS011;1480;51.456;6.670;2023-08-20T11:16:59;3.33;;;2.40;;
2940;SDS011;1480;51.456;6.670;2023-08-20T11:19:26;5.00;;;2.83;;
2940;SDS011;1480;51.456;6.670;2023-08-20T11:21:54;3.33;;;2.03;;
2940;SDS011;1480;51.456;6.670;2023-08-20T11:24:20;4.53;;;2.57;;
2940;SDS011;1480;51.456;6.670;2023-08-20T11:26:49;3.20;;;2.17;;
2940;SDS011;1480;51.456;6.670;2023-08-20T11:29:16;3.60;;;2.47;;
2940;SDS011;1480;51.456;6.670;2023-08-20T11:31:45;3.17;;;2.00;;
2940;SDS011;1480;51.456;6.670;2023-08-20T11:34:12;3.73;;;2.20;;
2940;SDS011;1480;51.456;6.670;2023-08-20T11:36:39;2.67;;;1.67;;
2940;SDS011;1480;51.456;6.670;2023-08-20T11:39:06;2.67;;;1.90;;
2940;SDS011;1480;51.456;6.670;2023-08-20T11:41:35;2.10;;;1.50;;
2940;SDS011;1480;51.456;6.670;2023-08-20T11:44:04;3.90;;;1.60;;
2940;SDS011;1480;51.456;6.670;2023-08-20T11:46:30;2.10;;;1.60;;
2940;SDS011;1480;51.456;6.670;2023-08-20T11:49:01;4.00;;;2.20;;
2940;SDS011;1480;51.456;6.670;2023-08-20T11:51:29;5.20;;;2.03;;
2940;SDS011;1480;51.456;6.670;2023-08-20T11:53:56;5.90;;;2.10;;
2940;SDS011;1480;51.456;6.670;2023-08-20T11:56:23;3.53;;;1.50;;
2940;SDS011;1480;51.456;6.670;2023-08-20T11:58:50;3.13;;;1.97;;
2940;SDS011;1480;51.456;6.670;2023-08-20T12:01:18;3.20;;;1.50;;
2940;SDS011;1480;51.456;6.670;2023-08-20T12:03:45;7.33;;;2.03;;
2940;SDS011;1480;51.456;6.670;2023-08-20T12:06:16;3.10;;;1.67;;
2940;SDS011;1480;51.456;6.670;2023-08-20T12:08:44;4.03;;;2.03;;
2940;SDS011;1480;51.456;6.670;2023-08-20T12:11:12;2.63;;;2.00;;
2940;SDS011;1480;51.456;6.670;2023-08-20T12:13:39;2.77;;;1.47;;
2940;SDS011;1480;51.456;6.670;2023-08-20T12:16:06;2.93;;;1.70;;
2940;SDS011;1480;51.456;6.670;2023-08-20T12:18:34;3.10;;;1.40;;
2940;SDS011;1480;51.456;6.670;2023-08-20T12:21:01;4.67;;;1.70;;
2940;SDS011;1480;51.456;6.670;2023-08-20T12:23:27;1.90;;;1.57;;
2940;SDS011;1480;51.456;6.670;2023-08-20T12:25:54;11.47;;;1.60;;
2940;SDS011;1480;51.456;6.670;2023-08-20T12:28:21;3.20;;;1.63;;
2940;SDS011;1480;51.456;6.670;2023-08-20T12:30:48;1.80;;;1.00;;
2940;SDS011;1480;51.456;6.670;2023-08-20T12:33:15;1.77;;;1.27;;
2940;SDS011;1480;51.456;6.670;2023-08-20T12:35:43;3.30;;;1.60;;
2940;SDS011;1480;51.456;6.670;2023-08-20T12:38:10;2.70;;;1.20;;
2940;SDS011;1480;51.456;6.670;2023-08-20T12:40:36;3.60;;;1.50;;
2940;SDS011;1480;51.456;6.670;2023-08-20T12:43:03;1.57;;;1.13;;
2940;SDS011;1480;51.456;6.670;2023-08-20T12:45:30;4.30;;;1.47;;
2940;SDS011;1480;51.456;6.670;2023-08-20T12:47:57;1.70;;;1.20;;
2940;SDS011;1480;51.456;6.670;2023-08-20T12:50:23;2.73;;;1.50;;
2940;SDS011;1480;51.456;6.670;2023-08-20T12:52:52;5.53;;;1.10;;
2940;SDS011;1480;51.456;6.670;2023-08-20T12:55:19;5.07;;;1.20;;
2940;SDS011;1480;51.456;6.670;2023-08-20T12:57:52;3.33;;;1.10;;
2940;SDS011;1480;51.456;6.670;2023-08-20T13:00:21;2.40;;;1.17;;
2940;SDS011;1480;51.456;6.670;2023-08-20T13:02:47;4.97;;;1.23;;
2940;SDS011;1480;51.456;6.670;2023-08-20T13:05:15;2.10;;;0.93;;
2940;SDS011;1480;51.456;6.670;2023-08-20T13:07:42;2.50;;;0.90;;
2940;SDS011;1480;51.456;6.670;2023-08-20T13:10:11;2.70;;;1.40;;
2940;SDS011;1480;51.456;6.670;2023-08-20T13:12:39;2.30;;;1.00;;
2940;SDS011;1480;51.456;6.670;2023-08-20T13:15:07;3.03;;;1.40;;
2940;SDS011;1480;51.456;6.670;2023-08-20T13:17:35;3.30;;;1.00;;
2940;SDS011;1480;51.456;6.670;2023-08-20T13:20:03;1.70;;;1.10;;
2940;SDS011;1480;51.456;6.670;2023-08-20T13:22:32;7.63;;;1.67;;
2940;SDS011;1480;51.456;6.670;2023-08-20T13:24:59;2.23;;;1.30;;
2940;SDS011;1480;51.456;6.670;2023-08-20T13:27:27;2.77;;;1.30;;
2940;SDS011;1480;51.456;6.670;2023-08-20T13:29:53;2.13;;;1.10;;
2940;SDS011;1480;51.456;6.670;2023-08-20T13:32:20;2.00;;;1.00;;
2940;SDS011;1480;51.456;6.670;2023-08-20T13:34:47;2.40;;;1.40;;
2940;SDS011;1480;51.456;6.670;2023-08-20T13:37:14;2.73;;;1.30;;
2940;SDS011;1480;51.456;6.670;2023-08-20T13:39:41;3.43;;;1.00;;
2940;SDS011;1480;51.456;6.670;2023-08-20T13:42:07;2.33;;;0.90;;
2940;SDS011;1480;51.456;6.670;2023-08-20T13:44:35;3.77;;;1.70;;
2940;SDS011;1480;51.456;6.670;2023-08-20T13:47:02;3.57;;;1.50;;
2940;SDS011;1480;51.456;6.670;2023-08-20T13:49:29;7.10;;;1.53;;
2940;SDS011;1480;51.456;6.670;2023-08-20T13:51:56;2.57;;;1.40;;
2940;SDS011;1480;51.456;6.670;2023-08-20T13:54:22;4.77;;;1.73;;
2940;SDS011;1480;51.456;6.670;2023-08-20T13:56:49;5.37;;;1.00;;
2940;SDS011;1480;51.456;6.670;2023-08-20T13:59:16;2.10;;;1.10;;
2940;SDS011;1480;51.456;6.670;2023-08-20T14:01:44;7.33;;;1.47;;
2940;SDS011;1480;51.456;6.670;2023-08-20T14:04:10;1.70;;;1.10;;
2940;SDS011;1480;51.456;6.670;2023-08-20T14:06:37;3.50;;;1.30;;
2940;SDS011;1480;51.456;6.670;2023-08-20T14:09:04;2.97;;;0.90;;
2940;SDS011;1480;51.456;6.670;2023-08-20T14:11:31;1.67;;;1.00;;
2940;SDS011;1480;51.456;6.670;2023-08-20T14:13:58;3.20;;;1.37;;
2940;SDS011;1480;51.456;6.670;2023-08-20T14:16:27;5.10;;;1.43;;
2940;SDS011;1480;51.456;6.670;2023-08-20T14:18:55;2.13;;;1.03;;
2940;SDS011;1480;51.456;6.670;2023-08-20T14:21:21;2.17;;;1.13;;
2940;SDS011;1480;51.456;6.670;2023-08-20T14:23:48;2.40;;;1.10;;
2940;SDS011;1480;51.456;6.670;2023-08-20T14:26:15;1.60;;;1.13;;
2940;SDS011;1480;51.456;6.670;2023-08-20T14:28:42;1.57;;;1.00;;
2940;SDS011;1480;51.456;6.670;2023-08-20T14:31:09;2.30;;;0.93;;
2940;SDS011;1480;51.456;6.670;2023-08-20T14:33:36;2.47;;;1.10;;
2940;SDS011;1480;51.456;6.670;2023-08-20T14:36:04;2.87;;;1.27;;
2940;SDS011;1480;51.456;6.670;2023-08-20T14:38:32;2.90;;;1.30;;
2940;SDS011;1480;51.456;6.670;2023-08-20T14:40:59;2.07;;;1.00;;
2940;SDS011;1480;51.456;6.670;2023-08-20T14:43:26;4.03;;;1.53;;
2940;SDS011;1480;51.456;6.670;2023-08-20T14:45:53;2.80;;;1.00;;
2940;SDS011;1480;51.456;6.670;2023-08-20T14:48:20;4.80;;;1.50;;
2940;SDS011;1480;51.456;6.670;2023-08-20T14:50:47;3.30;;;1.23;;
2940;SDS011;1480;51.456;6.670;2023-08-20T14:53:15;4.30;;;1.60;;
2940;SDS011;1480;51.456;6.670;2023-08-20T14:55:42;3.00;;;1.23;;
2940;SDS011;1480;51.456;6.670;2023-08-20T14:58:09;2.90;;;1.07;;
2940;SDS011;1480;51.456;6.670;2023-08-20T15:00:36;1.93;;;1.30;;
2940;SDS011;1480;51.456;6.670;2023-08-20T15:03:03;2.30;;;1.20;;
2940;SDS011;1480;51.456;6.670;2023-08-20T15:05:31;1.97;;;1.13;;
2940;SDS011;1480;51.456;6.670;2023-08-20T15:07:58;3.93;;;1.23;;
2940;SDS011;1480;51.456;6.670;2023-08-20T15:10:26;1.50;;;0.93;;
2940;SDS011;1480;51.456;6.670;2023-08-20T15:12:53;5.17;;;1.33;;
2940;SDS011;1480;51.456;6.670;2023-08-20T15:15:20;1.83;;;1.00;;
2940;SDS011;1480;51.456;6.670;2023-08-20T15:17:47;2.13;;;0.90;;
2940;SDS011;1480;51.456;6.670;2023-08-20T15:20:15;1.90;;;0.80;;